createdAt,value
2022-08-10T00:00:51.163Z,17.07
2022-08-10T00:03:17.417Z,17.02
2022-08-10T00:05:53.292Z,16.99
2022-08-10T00:08:24.091Z,16.95
2022-08-10T00:10:50.547Z,16.92
2022-08-10T00:13:16.822Z,16.92
2022-08-10T00:15:52.283Z,16.87
2022-08-10T00:18:35.354Z,16.84
2022-08-10T00:21:02.537Z,16.83
2022-08-10T00:23:28.776Z,16.79
2022-08-10T00:25:55.023Z,16.77
2022-08-10T00:28:21.263Z,16.75
2022-08-10T00:30:47.520Z,16.71
2022-08-10T00:33:13.789Z,16.69
2022-08-10T00:35:40.033Z,16.69
2022-08-10T00:38:06.261Z,16.67
2022-08-10T00:40:36.886Z,16.63
2022-08-10T00:43:04.234Z,16.59
2022-08-10T00:45:30.504Z,16.51
2022-08-10T00:47:56.777Z,16.47
2022-08-10T00:50:23.026Z,16.42
2022-08-10T00:52:49.254Z,16.39
2022-08-10T00:55:15.503Z,16.35
2022-08-10T00:57:41.737Z,16.32
2022-08-10T01:00:08.018Z,16.32
2022-08-10T01:02:34.561Z,16.33
2022-08-10T01:05:02.358Z,16.33
2022-08-10T01:07:28.972Z,16.32
2022-08-10T01:09:55.695Z,16.33
2022-08-10T01:12:37.844Z,16.31
2022-08-10T01:15:06.420Z,16.24
2022-08-10T01:17:49.985Z,16.20
2022-08-10T01:20:30.352Z,16.18
2022-08-10T01:22:57.368Z,16.16
2022-08-10T01:25:23.595Z,16.13
2022-08-10T01:27:49.828Z,16.10
2022-08-10T01:30:16.069Z,16.07
2022-08-10T01:32:42.303Z,16.04
2022-08-10T01:35:08.567Z,16.03
2022-08-10T01:37:36.380Z,16.02
2022-08-10T01:40:02.644Z,16.03
2022-08-10T01:42:28.870Z,16.01
2022-08-10T01:44:55.125Z,15.99
2022-08-10T01:47:22.591Z,15.93
2022-08-10T01:49:49.742Z,15.90
2022-08-10T01:52:18.309Z,15.82
2022-08-10T01:54:44.625Z,15.75
2022-08-10T01:57:10.889Z,15.72
2022-08-10T01:59:37.164Z,15.67
2022-08-10T02:02:03.413Z,15.61
2022-08-10T02:04:29.636Z,15.51
2022-08-10T02:06:55.893Z,15.46
2022-08-10T02:09:22.149Z,15.45
2022-08-10T02:12:06.346Z,15.47
2022-08-10T02:14:34.484Z,15.50
2022-08-10T02:17:01.092Z,15.50
2022-08-10T02:19:27.327Z,15.50
2022-08-10T02:22:37.954Z,15.50
2022-08-10T02:24:39.856Z,15.46
2022-08-10T02:27:06.110Z,15.45
2022-08-10T02:29:32.375Z,15.44
2022-08-10T02:31:58.618Z,15.42
2022-08-10T02:34:26.100Z,15.40
2022-08-10T02:36:52.331Z,15.36
2022-08-10T02:39:18.654Z,15.33
2022-08-10T02:45:03.203Z,15.33
2022-08-10T02:45:21.102Z,15.30
2022-08-10T02:47:17.406Z,15.25
2022-08-10T02:49:43.637Z,15.18
2022-08-10T02:52:09.882Z,15.15
2022-08-10T02:54:36.117Z,15.12
2022-08-10T02:57:02.345Z,15.11
2022-08-10T02:59:28.564Z,15.07
2022-08-10T03:02:06.302Z,15.00
2022-08-10T03:04:55.418Z,14.96
2022-08-10T03:07:18.773Z,14.94
2022-08-10T03:10:04.971Z,14.93
2022-08-10T03:12:39.616Z,14.93
2022-08-10T03:15:05.843Z,14.92
2022-08-10T03:17:32.095Z,14.92
2022-08-10T03:20:34.706Z,14.88
2022-08-10T03:22:44.570Z,14.87
2022-08-10T03:25:10.795Z,14.86
2022-08-10T03:27:37.080Z,14.85
2022-08-10T03:30:28.597Z,14.84
2022-08-10T03:32:49.531Z,14.83
2022-08-10T03:35:15.753Z,14.83
2022-08-10T03:37:41.980Z,14.83
2022-08-10T03:40:08.178Z,14.81
2022-08-10T03:42:34.617Z,14.79
2022-08-10T03:45:00.926Z,14.78
2022-08-10T03:47:27.208Z,14.76
2022-08-10T03:49:53.437Z,14.74
2022-08-10T03:52:19.720Z,14.75
2022-08-10T03:54:45.973Z,14.72
2022-08-10T03:57:12.229Z,14.72
2022-08-10T03:59:38.452Z,14.73
2022-08-10T04:02:45.831Z,14.71
2022-08-10T04:04:50.906Z,14.68
2022-08-10T04:07:17.183Z,14.67
2022-08-10T04:09:54.706Z,14.67
2022-08-10T04:12:22.526Z,14.66
2022-08-10T04:14:51.218Z,14.66
2022-08-10T04:17:18.507Z,14.65
2022-08-10T04:20:04.769Z,14.64
2022-08-10T04:22:31.024Z,14.59
2022-08-10T04:24:57.259Z,14.56
2022-08-10T04:27:23.520Z,14.54
2022-08-10T04:29:49.747Z,14.59
2022-08-10T04:32:16.004Z,14.61
2022-08-10T04:34:42.364Z,14.62
2022-08-10T04:37:09.343Z,14.64
2022-08-10T04:39:35.748Z,14.67
2022-08-10T04:42:02.084Z,14.69
2022-08-10T04:44:28.377Z,14.70
2022-08-10T04:46:58.512Z,14.73
2022-08-10T04:49:53.973Z,14.76
2022-08-10T04:52:12.074Z,14.80
2022-08-10T04:54:38.300Z,14.81
2022-08-10T04:57:04.541Z,14.86
2022-08-10T04:59:30.765Z,14.90
2022-08-10T05:02:30.668Z,14.93
2022-08-10T05:04:43.217Z,14.97
2022-08-10T05:07:09.486Z,15.00
2022-08-10T05:10:02.394Z,15.04
2022-08-10T05:12:21.928Z,15.10
2022-08-10T05:14:48.183Z,15.14
2022-08-10T05:17:14.422Z,15.19
2022-08-10T05:20:03.608Z,15.25
2022-08-10T05:22:26.930Z,15.31
2022-08-10T05:24:53.228Z,15.35
2022-08-10T05:27:19.479Z,15.41
2022-08-10T05:29:45.713Z,15.46
2022-08-10T05:32:28.974Z,15.50
2022-08-10T05:34:55.226Z,15.54
2022-08-10T05:38:09.174Z,15.61
2022-08-10T05:40:07.698Z,15.63
2022-08-10T05:42:34.070Z,15.69
2022-08-10T05:45:00.413Z,15.75
2022-08-10T05:47:26.651Z,15.84
2022-08-10T05:49:55.364Z,15.89
2022-08-10T05:52:21.596Z,15.94
2022-08-10T05:54:47.829Z,16.01
2022-08-10T05:57:14.075Z,16.08
2022-08-10T06:00:11.074Z,16.15
2022-08-10T06:02:31.648Z,16.23
2022-08-10T06:05:01.138Z,16.30
2022-08-10T06:07:27.471Z,16.37
2022-08-10T06:09:59.191Z,16.43
2022-08-10T06:12:29.525Z,16.50
2022-08-10T06:14:59.523Z,16.56
2022-08-10T06:17:26.405Z,16.61
2022-08-10T06:19:52.687Z,16.72
2022-08-10T06:22:18.950Z,16.82
2022-08-10T06:25:12.269Z,16.93
2022-08-10T06:27:34.637Z,17.02
2022-08-10T06:30:01.199Z,17.07
2022-08-10T06:32:27.540Z,17.12
2022-08-10T06:34:53.828Z,17.22
2022-08-10T06:37:20.101Z,17.28
2022-08-10T06:39:46.390Z,17.33
2022-08-10T06:42:14.979Z,17.42
2022-08-10T06:44:43.682Z,17.55
2022-08-10T06:47:09.926Z,17.71
2022-08-10T06:49:36.761Z,17.88
2022-08-10T06:52:03.003Z,17.98
2022-08-10T06:54:29.231Z,18.10
2022-08-10T06:57:16.530Z,18.18
2022-08-10T06:59:41.679Z,18.30
2022-08-10T07:02:08.312Z,18.45
2022-08-10T07:04:34.588Z,18.52
2022-08-10T07:07:00.938Z,18.60
2022-08-10T07:09:27.224Z,18.62
2022-08-10T07:11:54.737Z,18.78
2022-08-10T07:14:24.395Z,18.93
2022-08-10T07:16:50.706Z,18.99
2022-08-10T07:19:17.109Z,19.19
2022-08-10T07:21:43.339Z,19.26
2022-08-10T07:24:09.573Z,19.31
2022-08-10T07:26:35.811Z,19.39
2022-08-10T07:29:02.055Z,19.45
2022-08-10T07:31:54.607Z,19.52
2022-08-10T07:34:21.872Z,19.56
2022-08-10T07:36:55.881Z,19.64
2022-08-10T07:39:57.978Z,19.73
2022-08-10T07:42:08.446Z,19.84
2022-08-10T07:44:34.675Z,19.92
2022-08-10T07:47:00.995Z,20.03
2022-08-10T07:49:27.204Z,20.06
2022-08-10T07:51:54.681Z,20.15
2022-08-10T07:54:21.340Z,20.20
2022-08-10T07:56:49.312Z,20.20
2022-08-10T07:59:15.804Z,20.22
2022-08-10T08:01:42.101Z,20.28
2022-08-10T08:04:11.378Z,20.31
2022-08-10T08:06:38.306Z,20.35
2022-08-10T08:09:04.523Z,20.37
2022-08-10T08:11:30.781Z,20.53
2022-08-10T08:13:57.018Z,20.67
2022-08-10T08:16:23.266Z,20.76
2022-08-10T08:19:03.897Z,20.83
2022-08-10T08:24:08.724Z,20.82
2022-08-10T08:24:33.362Z,20.87
2022-08-10T08:27:00.447Z,20.87
2022-08-10T08:29:26.700Z,20.97
2022-08-10T08:31:54.551Z,21.07
2022-08-10T08:34:28.478Z,21.16
2022-08-10T08:36:58.883Z,21.18
2022-08-10T08:39:25.992Z,21.20
2022-08-10T08:41:52.450Z,21.23
2022-08-10T08:44:18.725Z,21.33
2022-08-10T08:46:45.003Z,21.38
2022-08-10T08:49:11.266Z,21.50
2022-08-10T08:52:09.199Z,21.58
2022-08-10T08:54:23.836Z,21.63
2022-08-10T08:56:50.531Z,21.70
2022-08-10T08:59:16.851Z,21.68
2022-08-10T09:01:43.247Z,21.65
2022-08-10T09:04:19.709Z,21.76
2022-08-10T09:06:47.556Z,21.94
2022-08-10T09:09:14.897Z,22.08
2022-08-10T09:11:41.415Z,22.04
2022-08-10T09:14:07.664Z,22.12
2022-08-10T09:16:33.945Z,22.20
2022-08-10T09:19:00.188Z,22.21
2022-08-10T09:21:26.429Z,22.24
2022-08-10T09:24:04.118Z,22.36
2022-08-10T09:26:32.426Z,22.53
2022-08-10T09:29:11.949Z,22.57
2022-08-10T09:31:39.615Z,22.62
2022-08-10T09:36:20.699Z,22.63
2022-08-10T09:36:52.161Z,22.57
2022-08-10T09:40:12.375Z,22.54
2022-08-10T09:42:04.665Z,22.54
2022-08-10T09:44:33.744Z,22.66
2022-08-10T09:47:20.003Z,22.71
2022-08-10T09:49:55.032Z,22.68
2022-08-10T09:52:22.590Z,22.71
2022-08-10T09:54:48.915Z,22.78
2022-08-10T10:00:02.757Z,23.00
2022-08-10T10:02:29.347Z,23.00
2022-08-10T10:04:55.606Z,23.01
2022-08-10T10:07:21.838Z,23.09
2022-08-10T10:09:48.088Z,23.14
2022-08-10T10:12:14.311Z,23.17
2022-08-10T10:14:40.633Z,23.16
2022-08-10T10:17:06.955Z,23.17
2022-08-10T10:19:37.216Z,23.20
2022-08-10T10:22:06.235Z,23.34
2022-08-10T10:24:32.493Z,23.49
2022-08-10T10:26:58.805Z,23.52
2022-08-10T10:29:58.018Z,23.52
2022-08-10T10:32:12.730Z,23.55
2022-08-10T10:34:38.994Z,23.58
2022-08-10T10:37:05.380Z,23.61
2022-08-10T10:39:31.926Z,23.63
2022-08-10T10:42:04.473Z,23.65
2022-08-10T10:44:31.206Z,23.68
2022-08-10T10:46:57.756Z,23.67
2022-08-10T10:49:23.975Z,23.90
2022-08-10T10:51:50.243Z,23.99
2022-08-10T10:54:16.489Z,24.02
2022-08-10T10:56:42.731Z,24.08
2022-08-10T10:59:33.486Z,24.20
2022-08-10T11:01:55.223Z,24.28
2022-08-10T11:04:21.584Z,24.32
2022-08-10T11:06:47.811Z,24.28
2022-08-10T11:10:08.802Z,24.21
2022-08-10T11:12:02.876Z,24.24
2022-08-10T11:14:31.043Z,24.26
2022-08-10T11:16:58.570Z,24.27
2022-08-10T11:19:26.562Z,24.30
2022-08-10T11:22:16.328Z,24.37
2022-08-10T11:24:49.831Z,24.50
2022-08-10T11:27:21.822Z,24.52
2022-08-10T11:29:49.704Z,24.68
2022-08-10T11:32:21.438Z,24.53
2022-08-10T11:35:11.057Z,24.47
2022-08-10T11:38:28.474Z,24.61
2022-08-10T11:40:20.327Z,24.72
2022-08-10T11:42:46.572Z,24.68
2022-08-10T11:45:12.844Z,24.65
2022-08-10T11:47:39.075Z,24.68
2022-08-10T11:50:06.439Z,24.76
2022-08-10T11:52:32.727Z,24.73
2022-08-10T11:54:59.022Z,24.87
2022-08-10T11:57:25.249Z,24.94
2022-08-10T12:00:11.495Z,24.92
2022-08-10T12:02:37.903Z,24.95
2022-08-10T12:05:04.292Z,25.02
2022-08-10T12:10:01.923Z,25.12
2022-08-10T12:10:16.762Z,25.24
2022-08-10T12:12:42.997Z,25.47
2022-08-10T12:15:09.260Z,25.55
2022-08-10T12:17:35.505Z,25.52
2022-08-10T12:20:03.642Z,25.46
2022-08-10T12:22:30.179Z,25.48
2022-08-10T12:24:57.891Z,25.36
2022-08-10T12:27:24.117Z,25.28
2022-08-10T12:29:50.354Z,25.26
2022-08-10T12:32:16.584Z,25.31
2022-08-10T12:34:51.144Z,25.37
2022-08-10T12:37:17.433Z,25.39
2022-08-10T12:39:43.678Z,25.57
2022-08-10T12:42:09.974Z,25.67
2022-08-10T12:44:42.142Z,25.72
2022-08-10T12:47:14.508Z,25.86
2022-08-10T12:49:41.052Z,26.05
2022-08-10T12:52:27.308Z,26.17
2022-08-10T12:54:53.626Z,26.22
2022-08-10T12:57:19.837Z,26.34
2022-08-10T12:59:46.091Z,26.49
2022-08-10T13:02:12.330Z,26.63
2022-08-10T13:04:38.583Z,26.87
2022-08-10T13:07:04.822Z,27.15
2022-08-10T13:09:31.088Z,27.36
2022-08-10T13:12:44.239Z,27.55
2022-08-10T13:14:43.558Z,27.75
2022-08-10T13:17:09.785Z,28.02
2022-08-10T13:19:38.644Z,28.28
2022-08-10T13:22:21.790Z,28.63
2022-08-10T13:24:48.054Z,28.95
2022-08-10T13:27:26.158Z,29.26
2022-08-10T13:29:53.556Z,29.46
2022-08-10T13:32:23.976Z,29.38
2022-08-10T13:34:50.213Z,29.60
2022-08-10T13:37:16.442Z,29.75
2022-08-10T13:39:57.991Z,29.74
2022-08-10T13:42:31.932Z,29.57
2022-08-10T13:44:58.965Z,29.66
2022-08-10T13:47:25.310Z,29.88
2022-08-10T13:49:51.628Z,29.51
2022-08-10T13:52:17.865Z,29.46
2022-08-10T13:54:44.208Z,29.46
2022-08-10T13:57:10.554Z,29.68
2022-08-10T14:00:34.404Z,30.01
2022-08-10T14:02:23.286Z,30.07
2022-08-10T14:04:49.603Z,29.45
2022-08-10T14:07:15.867Z,29.49
2022-08-10T14:09:42.156Z,29.62
2022-08-10T14:12:08.458Z,29.66
2022-08-10T14:14:34.784Z,29.89
2022-08-10T14:17:01.117Z,30.06
2022-08-10T14:19:29.663Z,30.13
2022-08-10T14:21:56.017Z,30.29
2022-08-10T14:24:22.514Z,30.36
2022-08-10T14:26:48.900Z,30.60
2022-08-10T14:29:18.977Z,30.72
2022-08-10T14:32:00.651Z,30.79
2022-08-10T14:36:15.970Z,30.66
2022-08-10T14:37:14.920Z,30.75
2022-08-10T14:39:41.310Z,30.88
2022-08-10T14:42:20.083Z,31.11
2022-08-10T14:44:51.996Z,31.25
2022-08-10T14:47:52.559Z,31.39
2022-08-10T14:50:05.078Z,31.18
2022-08-10T14:52:31.591Z,31.14
2022-08-10T14:54:58.053Z,31.25
2022-08-10T14:57:24.519Z,31.43
2022-08-10T15:00:29.422Z,31.36
2022-08-10T15:02:58.222Z,31.36
2022-08-10T15:05:24.696Z,31.40
2022-08-10T15:08:02.225Z,31.30
2022-08-10T15:10:28.801Z,31.31
2022-08-10T15:12:55.102Z,31.24
2022-08-10T15:15:27.712Z,31.35
2022-08-10T15:17:54.739Z,31.67
2022-08-10T15:20:24.000Z,31.88
2022-08-10T15:22:50.936Z,31.91
2022-08-10T15:25:18.865Z,32.03
2022-08-10T15:27:53.839Z,32.24
2022-08-10T15:30:21.511Z,32.32
2022-08-10T15:32:47.796Z,32.08
2022-08-10T15:35:14.172Z,32.13
2022-08-10T15:37:43.725Z,32.23
2022-08-10T15:40:24.148Z,32.29
2022-08-10T15:42:54.456Z,32.08
2022-08-10T15:45:24.761Z,31.95
2022-08-10T15:47:51.054Z,31.93
2022-08-10T15:50:17.396Z,31.96
2022-08-10T15:53:01.936Z,31.98
2022-08-10T15:55:44.108Z,31.90
2022-08-10T15:58:11.753Z,31.90
2022-08-10T16:00:38.191Z,31.76
2022-08-10T16:03:04.605Z,31.57
2022-08-10T16:06:00.123Z,31.49
2022-08-10T16:08:17.282Z,31.55
2022-08-10T16:10:53.590Z,31.65
2022-08-10T16:13:59.591Z,31.68
2022-08-10T16:16:06.474Z,31.65
2022-08-10T16:18:32.786Z,31.53
2022-08-10T16:20:59.106Z,31.59
2022-08-10T16:23:25.354Z,31.53
2022-08-10T16:25:58.476Z,31.34
2022-08-10T16:28:28.194Z,31.35
2022-08-10T16:30:54.461Z,31.43
2022-08-10T16:33:20.697Z,31.39
2022-08-10T16:35:49.903Z,31.22
2022-08-10T16:38:16.391Z,31.14
2022-08-10T16:40:42.877Z,31.22
2022-08-10T16:43:09.250Z,31.33
2022-08-10T16:45:35.534Z,31.25
2022-08-10T16:48:01.967Z,31.22
2022-08-10T16:50:28.283Z,31.26
2022-08-10T16:52:54.515Z,31.30
2022-08-10T16:55:24.283Z,31.34
2022-08-10T16:58:07.159Z,31.39
2022-08-10T17:00:33.396Z,31.39
2022-08-10T17:02:59.972Z,31.42
2022-08-10T17:06:09.856Z,31.30
2022-08-10T17:08:12.539Z,30.96
2022-08-10T17:10:38.866Z,30.58
2022-08-10T17:13:05.159Z,30.50
2022-08-10T17:15:31.457Z,30.11
2022-08-10T17:17:57.764Z,29.96
2022-08-10T17:20:30.636Z,30.04
2022-08-10T17:22:58.532Z,30.09
2022-08-10T17:25:24.968Z,30.05
2022-08-10T17:28:11.263Z,29.89
2022-08-10T17:30:57.519Z,29.76
2022-08-10T17:33:24.813Z,29.53
2022-08-10T17:35:51.268Z,29.53
2022-08-10T17:38:17.494Z,29.42
2022-08-10T17:40:45.079Z,29.29
2022-08-10T17:43:11.379Z,29.17
2022-08-10T17:45:48.146Z,29.19
2022-08-10T17:48:15.619Z,29.01
2022-08-10T17:50:41.902Z,28.83
2022-08-10T17:53:08.262Z,28.68
2022-08-10T17:55:34.498Z,28.49
2022-08-10T17:58:02.222Z,28.26
2022-08-10T18:00:28.766Z,28.02
2022-08-10T18:02:55.240Z,27.76
2022-08-10T18:05:21.463Z,27.49
2022-08-10T18:07:47.920Z,27.29
2022-08-10T18:10:14.209Z,27.12
2022-08-10T18:12:40.488Z,26.99
2022-08-10T18:15:12.366Z,26.83
2022-08-10T18:17:40.355Z,26.63
2022-08-10T18:20:06.800Z,26.58
2022-08-10T18:22:33.098Z,26.47
2022-08-10T18:24:59.388Z,26.43
2022-08-10T18:27:46.639Z,26.32
2022-08-10T18:30:12.172Z,26.22
2022-08-10T18:32:38.493Z,26.11
2022-08-10T18:35:04.785Z,25.99
2022-08-10T18:37:31.222Z,25.83
2022-08-10T18:39:57.597Z,25.76
2022-08-10T18:42:23.950Z,25.67
2022-08-10T18:44:50.156Z,25.55
2022-08-10T18:47:16.553Z,25.41
2022-08-10T18:49:42.857Z,25.30
2022-08-10T18:52:09.150Z,25.20
2022-08-10T18:54:44.348Z,25.11
2022-08-10T18:57:11.466Z,25.01
2022-08-10T18:59:37.806Z,24.92
2022-08-10T19:02:04.080Z,24.81
2022-08-10T19:04:30.533Z,24.74
2022-08-10T19:06:56.824Z,24.68
2022-08-10T19:09:45.996Z,24.60
2022-08-10T19:12:29.566Z,24.52
2022-08-10T19:14:55.658Z,24.44
2022-08-10T19:17:21.980Z,24.38
2022-08-10T19:19:48.399Z,24.30
2022-08-10T19:22:14.639Z,24.20
2022-08-10T19:24:40.869Z,24.13
2022-08-10T19:27:07.137Z,24.03
2022-08-10T19:30:09.480Z,23.98
2022-08-10T19:32:19.624Z,23.90
2022-08-10T19:34:45.843Z,23.80
2022-08-10T19:37:15.522Z,23.76
2022-08-10T19:39:42.189Z,23.69
2022-08-10T19:42:17.573Z,23.62
2022-08-10T19:44:43.836Z,23.55
2022-08-10T19:47:10.062Z,23.50
2022-08-10T19:49:39.966Z,23.42
2022-08-10T19:52:10.987Z,23.33
2022-08-10T19:54:37.967Z,23.23
2022-08-10T19:57:04.210Z,23.12
2022-08-10T20:00:16.276Z,23.04
2022-08-10T20:02:16.664Z,22.95
2022-08-10T20:04:42.942Z,22.89
2022-08-10T20:07:09.195Z,22.80
2022-08-10T20:09:35.433Z,22.73
2022-08-10T20:12:01.632Z,22.66
2022-08-10T20:14:27.862Z,22.58
2022-08-10T20:16:55.892Z,22.53
2022-08-10T20:19:22.619Z,22.45
2022-08-10T20:21:48.847Z,22.37
2022-08-10T20:24:15.132Z,22.29
2022-08-10T20:26:41.367Z,22.21
2022-08-10T20:29:07.616Z,22.14
2022-08-10T20:31:33.845Z,22.10
2022-08-10T20:34:01.677Z,22.02
2022-08-10T20:36:28.093Z,21.94
2022-08-10T20:38:54.385Z,21.91
2022-08-10T20:41:20.914Z,21.88
2022-08-10T20:43:47.141Z,21.84
2022-08-10T20:46:13.333Z,21.78
2022-08-10T20:48:39.598Z,21.75
2022-08-10T20:51:05.840Z,21.71
2022-08-10T20:53:32.199Z,21.66
2022-08-10T20:55:58.477Z,21.63
2022-08-10T20:58:24.702Z,21.60
2022-08-10T21:00:50.984Z,21.56
2022-08-10T21:03:22.153Z,21.53
2022-08-10T21:05:51.600Z,21.51
2022-08-10T21:08:19.130Z,21.48
2022-08-10T21:10:45.337Z,21.45
2022-08-10T21:13:11.575Z,21.42
2022-08-10T21:15:41.978Z,21.39
2022-08-10T21:18:09.023Z,21.35
2022-08-10T21:20:35.262Z,21.30
2022-08-10T21:23:05.431Z,21.27
2022-08-10T21:25:32.146Z,21.21
2022-08-10T21:27:59.418Z,21.17
2022-08-10T21:30:25.645Z,21.10
2022-08-10T21:32:53.846Z,21.08
2022-08-10T21:35:24.261Z,21.07
2022-08-10T21:38:04.213Z,21.01
2022-08-10T21:40:34.632Z,20.95
2022-08-10T21:43:01.849Z,20.91
2022-08-10T21:45:58.720Z,20.87
2022-08-10T21:51:00.529Z,20.77
2022-08-10T21:53:44.731Z,20.73
2022-08-10T21:56:11.661Z,20.67
2022-08-10T21:58:40.642Z,20.63
2022-08-10T22:01:09.126Z,20.58
2022-08-10T22:03:39.962Z,20.53
2022-08-10T22:06:06.696Z,20.49
2022-08-10T22:08:32.915Z,20.43
2022-08-10T22:10:59.123Z,20.40
2022-08-10T22:13:25.695Z,20.37
2022-08-10T22:16:09.778Z,20.33
2022-08-10T22:18:37.559Z,20.29
2022-08-10T22:21:11.544Z,20.25
2022-08-10T22:23:37.824Z,20.22
2022-08-10T22:26:06.806Z,20.18
2022-08-10T22:28:33.043Z,20.10
2022-08-10T22:31:27.487Z,20.81
2022-08-10T22:31:28.224Z,20.06
2022-08-10T22:33:45.468Z,20.03
2022-08-10T22:36:11.681Z,20.00
2022-08-10T22:38:37.934Z,19.97
2022-08-10T22:41:04.176Z,19.94
2022-08-10T22:43:35.291Z,19.92
2022-08-10T22:46:02.144Z,19.88
2022-08-10T22:48:28.366Z,19.84
2022-08-10T22:50:54.575Z,19.81
2022-08-10T22:53:21.292Z,19.77
2022-08-10T22:55:47.638Z,19.72
2022-08-10T22:58:13.889Z,19.67
2022-08-10T23:00:40.120Z,19.63
2022-08-10T23:03:06.490Z,19.58
2022-08-10T23:05:32.753Z,19.54
2022-08-10T23:07:58.979Z,19.48
2022-08-10T23:10:25.191Z,19.44
2022-08-10T23:12:51.457Z,19.38
2022-08-10T23:15:17.685Z,19.32
2022-08-10T23:18:02.072Z,19.28
2022-08-10T23:20:28.842Z,19.23
2022-08-10T23:22:55.071Z,19.19
2022-08-10T23:25:21.305Z,19.14
2022-08-10T23:27:51.095Z,19.09
2022-08-10T23:30:23.683Z,19.08
2022-08-10T23:32:51.711Z,19.04
2022-08-10T23:36:05.548Z,19.02
2022-08-10T23:38:04.168Z,18.96
2022-08-10T23:40:30.420Z,18.92
2022-08-10T23:42:56.767Z,18.89
2022-08-10T23:45:23.004Z,18.85
2022-08-10T23:47:49.239Z,18.80
2022-08-10T23:50:15.471Z,18.78
2022-08-10T23:52:41.709Z,18.76
2022-08-10T23:55:07.940Z,18.73
2022-08-10T23:57:34.183Z,18.74
